Time;durP1;ratioP1;P1;durP2;ratioP2;P2;SDS_P1;SDS_P2;PMS_P1;PMS_P2;Temp;Humidity;BMP_temperature;BMP_pressure;BME280_temperature;BME280_humidity;BME280_pressure;Samples;Min_cycle;Max_cycle;Signal;HPM_P1;HPM_P2
2020/12/28 00:01:11;;;;;;;3.03;2.83;;;;;;;4.69;69.00;97882.25;6347607;27;20221;-75
2020/12/28 00:04:32;;;;;;;3.10;2.90;;;;;;;4.63;70.26;97880.69;6352393;27;20249;-76
2020/12/28 00:07:54;;;;;;;2.63;2.43;;;;;;;4.80;69.70;97877.59;6359323;27;20221;-74
2020/12/28 00:11:17;;;;;;;3.33;3.03;;;;;;;4.89;69.23;97882.44;6355784;27;20225;-75
2020/12/28 00:14:37;;;;;;;3.90;3.60;;;;;;;5.04;68.36;97893.13;6354725;27;20332;-74
2020/12/28 00:18:01;;;;;;;3.37;3.07;;;;;;;4.86;69.05;97887.69;6362289;27;20234;-75
2020/12/28 00:21:21;;;;;;;2.77;2.57;;;;;;;5.10;68.36;97880.06;6362381;27;20617;-75
2020/12/28 00:24:42;;;;;;;3.20;2.90;;;;;;;4.94;69.19;97879.72;6347613;27;20221;-75
2020/12/28 00:28:03;;;;;;;3.20;2.97;;;;;;;4.92;69.04;97877.19;6356500;27;20541;-75
2020/12/28 00:31:24;;;;;;;2.53;2.33;;;;;;;5.07;68.39;97869.84;6341726;27;20229;-74
2020/12/28 00:34:44;;;;;;;4.53;3.47;;;;;;;5.03;69.10;97874.25;6364103;27;20226;-75
2020/12/28 00:38:04;;;;;;;2.83;2.53;;;;;;;5.09;68.78;97865.47;6355683;27;20229;-76
2020/12/28 00:41:25;;;;;;;3.07;2.73;;;;;;;5.02;69.32;97876.88;6359769;27;20240;-74
2020/12/28 00:44:46;;;;;;;3.30;3.03;;;;;;;5.01;68.97;97868.31;6350425;27;20229;-75
2020/12/28 00:48:07;;;;;;;2.87;2.67;;;;;;;4.85;70.02;97870.56;6359585;27;20312;-75
2020/12/28 00:51:28;;;;;;;2.83;2.53;;;;;;;5.01;69.47;97876.03;6348995;27;20225;-74
2020/12/28 00:54:50;;;;;;;2.80;2.60;;;;;;;5.43;67.94;97865.16;6334363;27;20469;-76
2020/12/28 00:58:13;;;;;;;2.77;2.33;;;;;;;5.25;67.96;97863.19;6350068;27;20297;-75
2020/12/28 01:01:36;;;;;;;2.83;2.50;;;;;;;5.47;67.71;97876.22;6345458;27;20570;-76
2020/12/28 01:04:56;;;;;;;2.43;2.23;;;;;;;5.39;67.54;97885.94;6349627;27;20622;-74
2020/12/28 01:08:20;;;;;;;2.67;2.47;;;;;;;5.21;68.50;97877.94;6342359;27;20615;-75
2020/12/28 01:11:41;;;;;;;4.17;2.93;;;;;;;5.63;66.86;97869.59;6328626;27;20285;-75
2020/12/28 01:15:03;;;;;;;2.30;1.87;;;;;;;5.35;67.28;97871.47;6342800;27;20376;-75
2020/12/28 01:18:33;;;;;;;2.33;2.13;;;;;;;5.28;67.78;97863.94;6336168;27;20245;-75
2020/12/28 01:21:59;;;;;;;2.53;2.33;;;;;;;5.44;67.65;97868.56;6339935;27;20229;-74
2020/12/28 01:25:20;;;;;;;3.53;3.23;;;;;;;5.60;66.65;97868.84;6357505;27;20328;-75
2020/12/28 01:28:50;;;;;;;3.20;3.00;;;;;;;5.75;66.65;97863.13;6338528;27;20783;-75
2020/12/28 01:32:11;;;;;;;3.10;2.90;;;;;;;5.76;66.74;97869.13;6356103;27;20229;-75
2020/12/28 01:35:53;;;;;;;2.50;2.30;;;;;;;5.41;67.71;97871.25;6347758;27;20720;-75
2020/12/28 01:39:13;;;;;;;2.50;2.30;;;;;;;5.44;67.68;97873.72;6338334;27;20246;-75
2020/12/28 01:42:34;;;;;;;3.20;2.50;;;;;;;5.43;67.59;97872.03;6356724;27;20309;-75
2020/12/28 01:45:54;;;;;;;2.73;2.53;;;;;;;5.26;68.10;97870.88;6358651;27;20308;-76
2020/12/28 01:49:22;;;;;;;2.10;2.00;;;;;;;5.34;68.15;97883.53;6343663;27;20582;-75
2020/12/28 01:52:43;;;;;;;2.40;2.00;;;;;;;5.18;68.52;97877.22;6352627;27;20221;-75
2020/12/28 01:56:06;;;;;;;2.13;2.03;;;;;;;5.41;67.20;97889.31;6355933;27;20233;-75
2020/12/28 01:59:32;;;;;;;2.57;2.20;;;;;;;5.47;67.72;97889.13;6352274;27;20225;-74
2020/12/28 02:02:58;;;;;;;3.47;3.17;;;;;;;5.61;67.30;97883.47;6342207;27;20312;-75
2020/12/28 02:06:36;;;;;;;1.77;1.67;;;;;;;5.78;66.53;97882.84;6346657;27;20653;-76
2020/12/28 02:09:57;;;;;;;2.83;2.17;;;;;;;5.70;66.54;97875.41;6351713;27;20738;-74
2020/12/28 02:13:18;;;;;;;2.37;2.00;;;;;;;5.68;67.13;97862.53;6320251;28;20237;-75
2020/12/28 02:16:57;;;;;;;3.50;2.27;;;;;;;5.91;65.84;97853.06;6330082;27;20252;-75
2020/12/28 02:20:21;;;;;;;2.63;2.23;;;;;;;5.68;66.59;97852.19;6316159;28;20321;-75
2020/12/28 02:23:43;;;;;;;2.07;1.97;;;;;;;5.67;67.00;97854.84;6325032;28;20782;-75
2020/12/28 02:27:04;;;;;;;2.33;2.20;;;;;;;5.96;65.94;97840.03;6330779;27;20233;-74
2020/12/28 02:30:24;;;;;;;2.60;2.37;;;;;;;5.59;67.12;97834.47;6331363;27;20337;-75
2020/12/28 02:34:19;;;;;;;2.30;2.10;;;;;;;5.49;68.26;97851.19;6334784;28;20229;-74
2020/12/28 02:37:59;;;;;;;2.37;2.20;;;;;;;5.38;68.69;97843.81;6323870;28;20222;-75
2020/12/28 02:41:23;;;;;;;2.23;2.03;;;;;;;5.26;68.63;97855.41;6327158;28;20241;-75
2020/12/28 02:45:04;;;;;;;2.50;2.30;;;;;;;5.23;69.05;97850.34;6307096;28;20242;-74
2020/12/28 02:48:44;;;;;;;2.03;1.83;;;;;;;5.47;68.50;97847.81;6327602;28;20304;-74
2020/12/28 02:52:22;;;;;;;2.33;2.10;;;;;;;5.35;68.21;97861.13;6340694;28;20221;-74
2020/12/28 02:56:01;;;;;;;2.50;2.30;;;;;;;5.21;68.92;97871.94;6331994;28;20221;-75
2020/12/28 02:59:41;;;;;;;1.70;1.60;;;;;;;5.19;69.21;97884.88;6335933;28;20218;-76
2020/12/28 03:03:20;;;;;;;1.97;1.73;;;;;;;5.47;67.85;97879.63;6329809;28;20526;-75
2020/12/28 03:06:59;;;;;;;2.10;2.00;;;;;;;5.49;67.90;97861.50;6324740;28;20300;-74
2020/12/28 03:10:38;;;;;;;2.00;1.80;;;;;;;5.21;68.86;97877.94;6327921;28;20235;-76
2020/12/28 03:14:16;;;;;;;1.97;1.83;;;;;;;5.40;68.67;97878.16;6341405;28;20230;-75
2020/12/28 03:18:04;;;;;;;2.30;2.10;;;;;;;5.41;68.05;97868.66;6326306;27;20217;-76
2020/12/28 03:21:43;;;;;;;1.90;1.73;;;;;;;5.78;67.60;97867.34;6323601;28;20221;-75
2020/12/28 03:25:23;;;;;;;2.50;2.27;;;;;;;5.98;66.54;97866.66;6332546;27;20230;-75
2020/12/28 03:29:02;;;;;;;2.90;2.00;;;;;;;5.76;67.46;97869.13;6329313;28;20416;-75
2020/12/28 03:32:57;;;;;;;2.33;2.23;;;;;;;5.91;66.62;97872.03;6279241;28;20253;-75
2020/12/28 03:36:37;;;;;;;2.30;2.10;;;;;;;5.83;66.98;97866.28;6336765;27;20223;-75
2020/12/28 03:40:19;;;;;;;2.10;1.90;;;;;;;5.84;67.44;97874.88;6328469;28;20506;-74
2020/12/28 03:44:02;;;;;;;2.27;2.07;;;;;;;6.02;66.76;97881.97;6331258;27;20222;-75
2020/12/28 03:47:45;;;;;;;2.97;1.90;;;;;;;6.14;66.21;97872.06;6319517;28;20599;-75
2020/12/28 03:51:24;;;;;;;2.23;2.07;;;;;;;5.95;67.06;97884.81;6342162;27;20222;-75
2020/12/28 03:55:04;;;;;;;1.90;1.80;;;;;;;5.36;68.94;97891.22;6332189;28;20238;-75
2020/12/28 03:58:45;;;;;;;2.30;2.10;;;;;;;5.50;68.67;97899.31;6328859;27;20226;-74
2020/12/28 04:02:24;;;;;;;1.97;1.87;;;;;;;5.73;68.18;97883.84;6327615;28;20222;-74
2020/12/28 04:06:05;;;;;;;2.17;1.97;;;;;;;5.50;68.66;97883.81;6357952;27;20510;-74
2020/12/28 04:09:54;;;;;;;2.50;2.30;;;;;;;5.70;68.31;97862.47;6352406;27;20232;-75
2020/12/28 04:13:38;;;;;;;1.90;1.80;;;;;;;5.73;68.20;97864.94;6328841;27;20924;-75
2020/12/28 04:16:58;;;;;;;1.80;1.70;;;;;;;5.72;68.39;97864.09;6347124;27;20221;-75
2020/12/28 04:20:18;;;;;;;2.07;1.90;;;;;;;5.72;68.69;97852.94;6345696;27;20529;-75
2020/12/28 04:23:38;;;;;;;2.53;2.33;;;;;;;5.84;68.28;97849.06;6324713;27;20229;-76
2020/12/28 04:26:59;;;;;;;2.40;2.00;;;;;;;5.97;67.69;97845.16;6330813;27;20246;-75
2020/12/28 04:30:20;;;;;;;2.70;2.00;;;;;;;6.03;67.43;97841.47;6340443;27;20217;-75
2020/12/28 04:33:41;;;;;;;2.00;1.90;;;;;;;5.88;68.51;97842.88;6359462;27;20229;-75
2020/12/28 04:37:01;;;;;;;2.03;1.93;;;;;;;5.93;67.87;97846.09;6343945;27;20221;-75
2020/12/28 04:40:21;;;;;;;2.13;1.93;;;;;;;5.82;68.29;97846.53;6354716;27;20237;-75
2020/12/28 04:43:42;;;;;;;2.87;2.00;;;;;;;5.75;68.30;97854.56;6363276;27;20226;-76
2020/12/28 04:47:03;;;;;;;2.27;2.13;;;;;;;5.65;68.65;97854.88;6361976;27;20704;-76
2020/12/28 04:50:24;;;;;;;2.40;2.20;;;;;;;5.87;68.51;97861.84;6348866;27;20322;-75
2020/12/28 04:53:45;;;;;;;2.33;2.13;;;;;;;6.00;68.03;97870.03;6356360;27;20213;-76
2020/12/28 04:57:05;;;;;;;1.73;1.63;;;;;;;5.80;68.54;97871.56;6350436;27;20304;-75
2020/12/28 05:00:26;;;;;;;1.93;1.83;;;;;;;5.77;68.50;97884.59;6358363;27;20229;-76
2020/12/28 05:03:49;;;;;;;1.83;1.73;;;;;;;5.71;69.16;97882.22;6349553;27;20222;-76
2020/12/28 05:07:10;;;;;;;1.80;1.70;;;;;;;5.66;69.20;97882.41;6361971;27;20229;-75
2020/12/28 05:10:30;;;;;;;1.53;1.43;;;;;;;5.88;67.94;97879.03;6339950;27;20229;-76
2020/12/28 05:13:51;;;;;;;1.87;1.77;;;;;;;5.96;67.83;97874.44;6347597;27;20229;-76
2020/12/28 05:17:15;;;;;;;1.50;1.40;;;;;;;5.81;68.58;97874.97;6364988;27;20600;-76
2020/12/28 05:20:36;;;;;;;1.50;1.40;;;;;;;5.67;69.28;97881.50;6363613;27;20256;-76
2020/12/28 05:23:56;;;;;;;2.60;1.90;;;;;;;5.59;69.21;97877.50;6351256;27;20611;-76
2020/12/28 05:27:19;;;;;;;2.70;1.50;;;;;;;5.85;68.68;97879.13;6354620;27;20233;-76
2020/12/28 05:30:43;;;;;;;1.33;1.23;;;;;;;6.18;67.68;97886.56;6350078;27;20221;-76
2020/12/28 05:34:03;;;;;;;2.60;1.93;;;;;;;6.25;67.20;97878.53;6304923;27;20226;-76
2020/12/28 05:37:26;;;;;;;2.03;1.77;;;;;;;6.00;68.13;97888.94;6359513;27;20225;-76
2020/12/28 05:40:47;;;;;;;1.73;1.33;;;;;;;6.08;67.51;97889.47;6353238;27;20505;-76
2020/12/28 05:44:11;;;;;;;1.73;1.63;;;;;;;6.37;67.09;97891.88;6361201;27;20229;-76
2020/12/28 05:47:36;;;;;;;1.50;1.40;;;;;;;6.23;67.06;97889.81;6348617;27;20237;-76
2020/12/28 05:50:58;;;;;;;2.40;1.30;;;;;;;6.44;66.36;97883.00;6340216;27;20240;-76
2020/12/28 05:54:20;;;;;;;1.57;1.47;;;;;;;6.41;66.44;97880.50;6362404;27;20229;-76
2020/12/28 05:57:41;;;;;;;1.40;1.30;;;;;;;6.57;65.80;97875.56;6358694;27;20229;-76
2020/12/28 06:01:08;;;;;;;1.88;1.77;;;;;;;6.10;66.88;97867.00;6352823;27;20763;-76
2020/12/28 06:04:29;;;;;;;1.73;1.57;;;;;;;5.98;66.28;97871.81;6355142;27;20254;-76
2020/12/28 06:07:50;;;;;;;1.73;1.63;;;;;;;6.10;66.13;97869.59;6325450;28;20222;-75
2020/12/28 06:11:11;;;;;;;1.37;1.20;;;;;;;6.10;65.28;97876.50;6330260;28;20242;-75
2020/12/28 06:14:33;;;;;;;1.50;1.40;;;;;;;6.08;65.25;97873.97;6345534;27;20234;-74
2020/12/28 06:17:54;;;;;;;1.70;1.53;;;;;;;5.99;65.10;97882.09;6355020;27;20218;-75
2020/12/28 06:21:14;;;;;;;2.13;1.50;;;;;;;5.98;64.85;97895.91;6334048;27;20226;-75
2020/12/28 06:24:34;;;;;;;4.77;3.10;;;;;;;5.89;64.65;97896.19;6344229;27;20221;-75
2020/12/28 06:27:56;;;;;;;2.13;1.93;;;;;;;6.08;64.51;97902.41;6352465;27;20233;-74
2020/12/28 06:31:16;;;;;;;2.67;2.00;;;;;;;5.91;64.54;97909.91;6353873;27;20514;-75
2020/12/28 06:34:37;;;;;;;2.50;2.00;;;;;;;5.95;64.33;97927.00;6339763;27;20221;-72
2020/12/28 06:38:00;;;;;;;2.33;2.10;;;;;;;5.84;64.14;97918.78;6354521;27;20222;-74
2020/12/28 06:41:25;;;;;;;2.07;1.97;;;;;;;5.91;63.63;97921.09;6351776;27;20229;-69
2020/12/28 06:44:46;;;;;;;2.23;2.03;;;;;;;5.84;63.41;97918.78;6357524;27;20645;-70
2020/12/28 06:48:16;;;;;;;4.30;2.80;;;;;;;5.96;62.73;97917.53;6334253;28;20636;-71
2020/12/28 06:51:36;;;;;;;2.00;1.90;;;;;;;6.03;62.27;97913.81;6334377;28;20261;-74
2020/12/28 06:55:11;;;;;;;2.43;2.10;;;;;;;5.50;63.23;97912.22;6328346;28;20607;-73
2020/12/28 06:58:32;;;;;;;3.77;2.30;;;;;;;5.57;62.11;97894.78;6323881;28;20568;-74
2020/12/28 07:01:53;;;;;;;3.10;2.80;;;;;;;5.72;62.36;97895.09;6342452;28;20727;-74
2020/12/28 07:05:14;;;;;;;2.03;1.80;;;;;;;5.82;61.82;97899.94;6345955;28;20221;-79
2020/12/28 07:08:39;;;;;;;2.67;2.10;;;;;;;5.98;61.11;97908.81;6336825;28;20611;-73
2020/12/28 07:12:07;;;;;;;2.73;2.50;;;;;;;6.19;60.95;97924.44;6333081;28;20229;-74
2020/12/28 07:15:28;;;;;;;2.80;1.97;;;;;;;6.04;60.56;97931.84;6334830;28;20229;-80
2020/12/28 07:18:49;;;;;;;5.37;2.40;;;;;;;5.97;60.65;97932.13;6334043;28;20230;-75
2020/12/28 07:22:09;;;;;;;3.17;2.80;;;;;;;5.91;60.72;97948.66;6348460;27;20663;-76
2020/12/28 07:25:29;;;;;;;3.13;2.83;;;;;;;5.80;60.89;97943.88;6344469;27;20225;-80
2020/12/28 07:28:50;;;;;;;3.53;2.60;;;;;;;5.72;61.05;97936.41;6343197;27;20496;-78
2020/12/28 07:32:10;;;;;;;4.10;2.60;;;;;;;5.80;60.38;97935.31;6350155;28;20225;-72
2020/12/28 07:35:31;;;;;;;3.20;2.90;;;;;;;5.93;60.76;97923.59;6349426;28;20678;-73
2020/12/28 07:39:02;;;;;;;3.57;2.33;;;;;;;5.70;60.21;97935.63;6322726;28;20352;-78
2020/12/28 07:42:24;;;;;;;3.70;3.20;;;;;;;5.52;60.25;97944.00;6344951;27;20857;-79
2020/12/28 07:45:46;;;;;;;3.60;2.40;;;;;;;5.88;60.04;97936.69;6344716;27;20728;-74
2020/12/28 07:49:12;;;;;;;3.50;3.23;;;;;;;5.83;60.29;97927.41;6337298;28;20325;-75
2020/12/28 07:52:40;;;;;;;5.63;2.47;;;;;;;5.84;60.41;97939.44;6335747;28;20317;-72
2020/12/28 07:56:03;;;;;;;2.57;2.37;;;;;;;6.07;59.68;97934.31;6345284;28;20220;-70
2020/12/28 07:59:43;;;;;;;3.43;2.80;;;;;;;5.96;59.55;97941.63;6351907;28;20823;-71
2020/12/28 08:03:20;;;;;;;4.57;3.10;;;;;;;5.88;59.37;97935.84;6345187;28;20229;-73
2020/12/28 08:06:40;;;;;;;3.67;3.07;;;;;;;5.53;60.05;97949.09;6362788;27;20237;-71
2020/12/28 08:10:07;;;;;;;4.03;2.90;;;;;;;5.70;60.25;97940.78;6354515;27;20232;-75
2020/12/28 08:13:29;;;;;;;2.90;2.70;;;;;;;5.76;59.56;97934.56;6344187;27;20237;-71
2020/12/28 08:16:51;;;;;;;2.60;2.40;;;;;;;5.96;59.62;97940.78;6354656;27;20232;-73
2020/12/28 08:20:13;;;;;;;3.47;2.77;;;;;;;6.09;59.31;97944.59;6352732;27;20236;-72
2020/12/28 08:23:33;;;;;;;3.50;2.80;;;;;;;5.90;59.16;97949.56;6352074;27;20228;-71
2020/12/28 08:26:54;;;;;;;2.77;2.57;;;;;;;5.76;59.64;97962.09;6352631;27;20315;-72
2020/12/28 08:30:15;;;;;;;4.00;3.20;;;;;;;5.98;59.30;97976.00;6352398;27;20260;-68
2020/12/28 08:33:36;;;;;;;4.13;3.03;;;;;;;5.70;59.71;97989.84;6350629;27;20325;-68
2020/12/28 08:36:56;;;;;;;4.63;3.20;;;;;;;5.60;60.05;97988.44;6361088;27;20228;-71
2020/12/28 08:40:18;;;;;;;3.43;2.90;;;;;;;5.69;59.99;97985.56;6364872;27;20512;-71
2020/12/28 08:43:45;;;;;;;4.60;3.53;;;;;;;5.37;60.50;97985.81;6359874;27;20312;-70
2020/12/28 08:47:11;;;;;;;4.87;3.23;;;;;;;5.49;59.63;97995.75;6361894;27;20599;-69
2020/12/28 08:50:37;;;;;;;3.90;3.23;;;;;;;5.52;59.76;97993.91;6350642;27;20225;-70
2020/12/28 08:53:57;;;;;;;3.47;3.17;;;;;;;5.30;59.22;97998.91;6358412;27;20225;-69
2020/12/28 08:57:19;;;;;;;3.60;3.30;;;;;;;5.33;60.44;98001.41;6351642;27;20217;-69
2020/12/28 09:00:40;;;;;;;3.73;3.17;;;;;;;5.21;60.75;98006.09;6345984;27;20241;-69
2020/12/28 09:04:01;;;;;;;5.13;3.60;;;;;;;5.37;60.52;98022.81;6347483;27;20249;-69
2020/12/28 09:07:23;;;;;;;3.33;3.03;;;;;;;5.28;60.82;98026.50;6352864;27;20229;-70
2020/12/28 09:10:44;;;;;;;4.60;3.20;;;;;;;5.27;60.75;98019.66;6355923;27;20609;-69
2020/12/28 09:14:06;;;;;;;4.07;3.67;;;;;;;5.35;61.13;98018.56;6353657;27;20225;-71
2020/12/28 09:17:27;;;;;;;5.97;4.37;;;;;;;5.47;60.95;98018.19;6348984;27;20296;-71
2020/12/28 09:20:47;;;;;;;4.63;3.77;;;;;;;5.53;60.79;98012.81;6358421;27;20217;-76
2020/12/28 09:24:08;;;;;;;4.40;3.47;;;;;;;5.44;60.84;98003.63;6353782;27;20229;-72
2020/12/28 09:27:28;;;;;;;4.90;3.57;;;;;;;5.58;61.13;98004.91;6349973;27;20304;-68
2020/12/28 09:30:49;;;;;;;5.03;3.50;;;;;;;5.65;61.03;97999.47;6342571;27;20257;-71
2020/12/28 09:34:10;;;;;;;4.50;4.10;;;;;;;5.65;61.23;98002.06;6346577;27;20241;-70
2020/12/28 09:37:31;;;;;;;4.60;4.20;;;;;;;5.63;61.45;97998.69;6362113;27;20221;-73
2020/12/28 09:40:51;;;;;;;5.50;4.67;;;;;;;5.72;61.08;97998.38;6350284;27;20224;-76
2020/12/28 09:44:12;;;;;;;5.07;3.93;;;;;;;5.78;61.08;98001.63;6357479;27;20253;-68
2020/12/28 09:47:32;;;;;;;5.33;3.90;;;;;;;5.73;60.99;97997.47;6357742;27;20249;-68
2020/12/28 09:50:53;;;;;;;4.90;3.83;;;;;;;5.63;61.59;97990.94;6344858;27;20324;-68
2020/12/28 09:54:14;;;;;;;5.90;4.00;;;;;;;5.75;60.81;98006.91;6357476;27;20233;-70
2020/12/28 09:57:35;;;;;;;5.33;4.37;;;;;;;5.91;60.13;97998.59;6356608;27;20225;-69
2020/12/28 10:00:57;;;;;;;4.90;4.23;;;;;;;6.13;60.15;97995.28;6349668;27;20233;-70
2020/12/28 10:04:17;;;;;;;4.23;3.67;;;;;;;5.96;60.42;97998.44;6354973;27;20225;-71
2020/12/28 10:07:39;;;;;;;5.87;5.23;;;;;;;6.08;59.83;97999.75;6335907;27;20233;-71
2020/12/28 10:10:59;;;;;;;5.67;4.30;;;;;;;6.13;59.68;97997.00;6355621;27;20217;-71
2020/12/28 10:14:20;;;;;;;4.93;4.07;;;;;;;6.31;59.59;97989.41;6356817;27;20221;-70
2020/12/28 10:18:11;;;;;;;6.20;5.37;;;;;;;6.61;59.08;97994.38;6352752;27;20225;-70
2020/12/28 10:21:31;;;;;;;7.93;6.67;;;;;;;6.90;58.70;97990.66;6357483;27;20221;-73
2020/12/28 10:24:53;;;;;;;6.33;5.30;;;;;;;7.23;58.01;97992.78;6352130;27;20229;-70
2020/12/28 10:28:13;;;;;;;4.87;4.33;;;;;;;7.18;57.35;97984.38;6328598;27;20344;-71
2020/12/28 10:31:33;;;;;;;3.97;3.57;;;;;;;7.86;56.43;97977.19;6341316;27;20251;-70
2020/12/28 10:34:54;;;;;;;5.40;4.20;;;;;;;8.39;54.57;97975.72;6341209;27;20233;-70
2020/12/28 10:38:14;;;;;;;6.20;5.10;;;;;;;9.12;53.23;97986.22;6331929;28;20257;-70
2020/12/28 10:41:36;;;;;;;5.53;4.47;;;;;;;9.19;51.58;97998.00;6346822;27;20768;-71
2020/12/28 10:44:56;;;;;;;5.73;4.47;;;;;;;8.33;53.07;97995.91;6321872;28;20226;-72
2020/12/28 10:48:16;;;;;;;4.13;3.83;;;;;;;7.19;56.42;98005.91;6314513;28;20233;-72
2020/12/28 10:51:37;;;;;;;5.23;4.73;;;;;;;6.83;57.23;98003.88;6351911;27;20228;-75
2020/12/28 10:54:57;;;;;;;5.00;4.50;;;;;;;7.14;57.35;98013.88;6347839;28;20244;-76
2020/12/28 10:58:18;;;;;;;5.60;4.63;;;;;;;7.33;57.10;98001.03;6341953;28;20355;-76
2020/12/28 11:01:39;;;;;;;4.67;3.93;;;;;;;7.20;56.91;98003.25;6355333;28;20253;-76
2020/12/28 11:05:00;;;;;;;6.47;4.50;;;;;;;7.48;56.99;98007.31;6348904;28;20672;-75
2020/12/28 11:08:20;;;;;;;4.73;4.33;;;;;;;6.77;58.63;98007.53;6350564;28;20234;-77
2020/12/28 11:11:41;;;;;;;5.17;4.67;;;;;;;6.77;58.74;97997.19;6348285;28;20547;-75
2020/12/28 11:15:02;;;;;;;4.63;4.23;;;;;;;6.96;58.62;97991.28;6340130;28;20237;-76
2020/12/28 11:18:23;;;;;;;6.27;4.43;;;;;;;6.62;59.42;97995.19;6349562;28;20524;-77
2020/12/28 11:21:44;;;;;;;7.70;6.40;;;;;;;6.94;58.89;97981.03;6352859;28;20244;-76
2020/12/28 11:25:04;;;;;;;6.27;5.20;;;;;;;6.94;59.04;97996.56;6345580;28;20246;-77
2020/12/28 11:28:26;;;;;;;5.53;3.77;;;;;;;6.93;59.07;98004.38;6336235;28;20807;-79
2020/12/28 11:31:48;;;;;;;6.80;4.77;;;;;;;6.95;58.80;98005.97;6334319;28;20241;-78
2020/12/28 11:35:08;;;;;;;5.93;4.80;;;;;;;6.84;59.06;98011.59;6348613;28;20508;-78
2020/12/28 11:38:28;;;;;;;5.63;4.60;;;;;;;6.89;59.07;98009.66;6348258;27;20603;-77
2020/12/28 11:41:49;;;;;;;9.17;5.40;;;;;;;7.15;58.61;98015.53;6355487;27;20220;-78
2020/12/28 11:45:10;;;;;;;5.00;4.50;;;;;;;7.30;58.45;98011.50;6355940;27;20225;-75
2020/12/28 11:48:31;;;;;;;8.77;5.00;;;;;;;7.30;58.01;97998.56;6352539;27;20225;-72
2020/12/28 11:51:53;;;;;;;5.27;4.77;;;;;;;7.29;58.26;97995.13;6349307;27;20229;-74
2020/12/28 11:55:13;;;;;;;5.80;4.23;;;;;;;7.24;58.45;97989.28;6357539;27;20225;-71
2020/12/28 11:58:35;;;;;;;6.03;4.80;;;;;;;7.02;59.04;97993.66;6353445;27;20230;-73
2020/12/28 12:01:56;;;;;;;5.47;4.60;;;;;;;6.89;59.37;97999.28;6349801;27;20577;-76
2020/12/28 12:05:17;;;;;;;6.63;5.00;;;;;;;7.01;59.30;98012.66;6350140;27;20226;-75
2020/12/28 12:08:37;;;;;;;7.13;5.00;;;;;;;6.97;59.61;98008.50;6341117;27;20229;-70
2020/12/28 12:11:58;;;;;;;5.53;4.60;;;;;;;7.17;58.95;97998.19;6351397;27;20221;-84
2020/12/28 12:15:18;;;;;;;8.70;6.87;;;;;;;7.19;59.00;98003.31;6338796;27;20610;-81
2020/12/28 12:18:39;;;;;;;7.40;5.07;;;;;;;6.83;59.67;98009.06;6342652;27;20233;-71
2020/12/28 12:22:00;;;;;;;6.00;4.80;;;;;;;6.83;60.01;98004.72;6340986;27;20233;-71
2020/12/28 12:25:20;;;;;;;5.70;4.67;;;;;;;6.87;59.86;98008.03;6336676;27;20221;-69
2020/12/28 12:28:41;;;;;;;4.67;4.03;;;;;;;6.65;60.38;98013.16;6331713;27;20217;-71
2020/12/28 12:32:02;;;;;;;5.83;5.23;;;;;;;7.03;59.63;98008.28;6324089;28;20230;-74
2020/12/28 12:35:22;;;;;;;5.93;4.70;;;;;;;6.91;59.64;98022.53;6331116;27;20226;-71
2020/12/28 12:38:43;;;;;;;6.43;4.47;;;;;;;6.58;60.85;98016.91;6337841;27;20222;-71
2020/12/28 12:42:04;;;;;;;5.93;4.37;;;;;;;6.61;61.28;98024.53;6329798;27;20230;-76
2020/12/28 12:45:24;;;;;;;6.30;4.80;;;;;;;6.99;60.24;98027.41;6329583;28;20235;-71
2020/12/28 12:48:45;;;;;;;7.20;5.27;;;;;;;7.30;59.45;98029.63;6333883;27;21108;-79
2020/12/28 12:52:13;;;;;;;5.73;4.00;;;;;;;6.94;60.34;98029.31;6349193;27;21814;-71
2020/12/28 12:55:34;;;;;;;6.03;5.33;;;;;;;6.91;60.67;98027.69;6334757;27;20229;-69
2020/12/28 12:58:55;;;;;;;6.07;4.63;;;;;;;7.16;59.94;98022.41;6324220;28;20878;-73
2020/12/28 13:02:15;;;;;;;5.00;3.80;;;;;;;6.79;61.00;98023.84;6343555;27;20356;-69
2020/12/28 13:05:35;;;;;;;5.13;4.27;;;;;;;6.72;61.83;98035.31;6350616;27;20229;-68
2020/12/28 13:08:56;;;;;;;4.83;4.43;;;;;;;6.78;61.75;98029.91;6351878;27;20316;-73
2020/12/28 13:12:17;;;;;;;7.47;5.20;;;;;;;6.83;61.82;98034.94;6350203;27;20707;-73
2020/12/28 13:15:37;;;;;;;3.97;3.57;;;;;;;7.05;61.29;98037.50;6354868;27;20254;-72
2020/12/28 13:18:58;;;;;;;4.47;3.87;;;;;;;7.24;61.37;98033.28;6349689;27;20233;-70
2020/12/28 13:22:18;;;;;;;4.70;4.30;;;;;;;7.64;60.43;98029.09;6351385;27;20308;-72
2020/12/28 13:25:39;;;;;;;4.30;3.87;;;;;;;7.98;59.52;98037.19;6347473;27;20217;-70
2020/12/28 13:29:00;;;;;;;4.53;3.80;;;;;;;7.92;59.46;98032.28;6353756;27;20252;-71
2020/12/28 13:32:21;;;;;;;4.57;4.13;;;;;;;8.22;58.74;98035.28;6351804;27;20787;-71
2020/12/28 13:35:41;;;;;;;4.07;3.67;;;;;;;8.03;58.87;98038.69;6343656;27;20229;-77
2020/12/28 13:39:02;;;;;;;3.60;3.07;;;;;;;7.74;60.25;98042.50;6332406;27;20237;-74
2020/12/28 13:42:22;;;;;;;4.50;3.87;;;;;;;8.02;59.67;98030.97;6357834;27;20614;-74
2020/12/28 13:45:43;;;;;;;3.33;2.90;;;;;;;8.18;58.67;98038.91;6343690;27;20781;-73
2020/12/28 13:49:04;;;;;;;3.70;3.17;;;;;;;8.05;59.26;98049.00;6319260;28;20550;-75
2020/12/28 13:52:24;;;;;;;3.70;3.33;;;;;;;7.83;59.44;98054.22;6326165;27;20238;-74
2020/12/28 13:55:46;;;;;;;7.83;7.03;;;;;;;7.93;59.86;98058.13;6347566;27;20229;-73
2020/12/28 13:59:07;;;;;;;7.47;6.27;;;;;;;8.17;59.03;98068.34;6338662;27;20226;-72
2020/12/28 14:02:28;;;;;;;22.03;13.77;;;;;;;8.14;58.96;98079.66;6325374;27;20225;-80
2020/12/28 14:05:49;;;;;;;6.43;5.03;;;;;;;8.19;58.71;98069.97;6327942;27;20528;-79
2020/12/28 14:09:09;;;;;;;5.13;4.60;;;;;;;8.41;58.34;98067.31;6327607;27;20241;-81
2020/12/28 14:12:30;;;;;;;5.43;4.93;;;;;;;8.35;58.35;98070.13;6315029;28;20223;-77
2020/12/28 14:15:50;;;;;;;6.00;4.83;;;;;;;8.44;58.31;98072.34;6352709;27;20260;-76
2020/12/28 14:19:12;;;;;;;5.00;4.50;;;;;;;8.44;57.98;98067.16;6349446;27;20228;-75
2020/12/28 14:22:32;;;;;;;4.87;4.37;;;;;;;8.52;57.75;98077.22;6339473;27;20555;-75
2020/12/28 14:25:53;;;;;;;6.67;4.60;;;;;;;8.37;58.37;98075.25;6326651;27;20233;-76
2020/12/28 14:29:14;;;;;;;5.63;4.73;;;;;;;8.22;58.54;98069.84;6338758;27;20234;-78
2020/12/28 14:32:34;;;;;;;5.60;5.10;;;;;;;8.08;58.89;98070.44;6338100;27;20249;-72
2020/12/28 14:35:55;;;;;;;4.83;4.33;;;;;;;8.25;58.45;98066.25;6349166;27;20234;-73
2020/12/28 14:39:16;;;;;;;5.43;4.33;;;;;;;8.15;58.65;98075.34;6347533;27;20221;-73
2020/12/28 14:42:36;;;;;;;3.63;3.33;;;;;;;8.08;58.86;98062.66;6355540;27;20872;-72
2020/12/28 14:45:57;;;;;;;3.93;3.50;;;;;;;8.01;59.30;98063.00;6332272;27;20229;-72
2020/12/28 14:49:17;;;;;;;6.20;4.97;;;;;;;8.09;58.73;98064.31;6350233;27;20505;-72
2020/12/28 14:52:39;;;;;;;6.53;4.93;;;;;;;8.13;58.71;98051.25;6315669;28;20591;-72
2020/12/28 14:56:00;;;;;;;5.27;4.73;;;;;;;8.29;57.84;98062.63;6312407;28;20305;-73
2020/12/28 14:59:20;;;;;;;5.00;3.63;;;;;;;8.25;58.09;98071.44;6360502;28;20228;-72
2020/12/28 15:02:40;;;;;;;5.93;4.90;;;;;;;7.97;58.76;98071.78;6359414;28;20710;-73
2020/12/28 15:06:01;;;;;;;4.80;3.67;;;;;;;7.99;58.66;98076.00;6362886;28;20602;-74
2020/12/28 15:09:23;;;;;;;6.30;5.47;;;;;;;8.07;58.67;98073.09;6354625;28;20233;-73
2020/12/28 15:12:43;;;;;;;5.93;5.33;;;;;;;8.20;58.15;98063.00;6327241;27;20233;-73
2020/12/28 15:16:04;;;;;;;4.50;4.10;;;;;;;8.25;58.01;98079.22;6364240;27;20254;-73
2020/12/28 15:19:24;;;;;;;6.47;5.87;;;;;;;8.24;58.26;98077.56;6343856;28;20238;-74
2020/12/28 15:22:45;;;;;;;9.27;6.83;;;;;;;8.31;57.67;98081.53;6360716;27;20229;-74
2020/12/28 15:26:06;;;;;;;6.90;4.83;;;;;;;8.21;57.86;98090.63;6351988;27;20233;-73
2020/12/28 15:29:27;;;;;;;6.20;5.60;;;;;;;8.24;57.71;98091.34;6326723;28;20225;-75
2020/12/28 15:32:47;;;;;;;5.93;5.13;;;;;;;8.24;57.80;98095.72;6326448;28;20250;-75
2020/12/28 15:36:08;;;;;;;10.20;5.77;;;;;;;8.24;57.38;98101.72;6326512;28;20257;-75
2020/12/28 15:39:28;;;;;;;7.47;6.03;;;;;;;8.16;57.65;98103.81;6346427;27;20229;-74
2020/12/28 15:42:49;;;;;;;6.13;5.50;;;;;;;8.07;57.77;98112.81;6363598;27;20232;-75
2020/12/28 15:46:10;;;;;;;8.43;6.40;;;;;;;8.08;57.86;98106.72;6342066;27;20229;-74
2020/12/28 15:49:30;;;;;;;8.80;7.37;;;;;;;8.18;57.54;98101.13;6330513;28;20233;-76
2020/12/28 15:52:51;;;;;;;4.53;4.10;;;;;;;8.81;67.64;98112.22;6345405;27;20316;-75
2020/12/28 15:56:12;;;;;;;7.87;6.47;;;;;;;9.11;60.34;98113.50;6321038;27;20310;-73
2020/12/28 15:59:35;;;;;;;19.63;17.63;;;;;;;8.64;57.97;98114.72;6319226;28;20226;-73
2020/12/28 16:02:56;;;;;;;12.43;10.67;;;;;;;8.48;58.13;98120.59;6338154;27;20234;-75
2020/12/28 16:06:16;;;;;;;26.37;19.40;;;;;;;8.44;57.85;98128.59;6336866;27;20249;-74
2020/12/28 16:09:37;;;;;;;9.77;8.77;;;;;;;8.17;57.64;98135.75;6310557;27;20227;-74